createdAt,value
2018-09-27T00:00:59.695Z,0
2018-09-27T00:02:09.633Z,0
2018-09-27T00:03:19.577Z,0
2018-09-27T00:04:29.519Z,0
2018-09-27T00:05:39.461Z,0
2018-09-27T00:06:49.375Z,0
2018-09-27T00:07:59.070Z,0
2018-09-27T00:09:09.008Z,0
2018-09-27T00:10:18.938Z,0
2018-09-27T00:11:28.867Z,0
2018-09-27T00:12:38.811Z,0
2018-09-27T00:13:48.737Z,0
2018-09-27T00:14:58.685Z,0
2018-09-27T00:16:08.384Z,0
2018-09-27T00:17:18.064Z,0
2018-09-27T00:18:28.013Z,0
2018-09-27T00:19:38.030Z,0
2018-09-27T00:20:47.624Z,0
2018-09-27T00:21:57.097Z,0
2018-09-27T00:23:07.051Z,0
2018-09-27T00:24:16.722Z,0
2018-09-27T00:25:26.656Z,0
2018-09-27T00:26:36.601Z,0
2018-09-27T00:27:46.539Z,0
2018-09-27T00:28:56.226Z,0
2018-09-27T00:30:06.167Z,0
2018-09-27T00:31:15.865Z,0
2018-09-27T00:32:26.107Z,0
2018-09-27T00:33:35.532Z,0
2018-09-27T00:34:45.469Z,0
2018-09-27T00:35:55.400Z,0
2018-09-27T00:37:05.084Z,0
2018-09-27T00:38:14.761Z,0
2018-09-27T00:39:24.709Z,0
2018-09-27T00:40:34.647Z,0
2018-09-27T00:41:44.076Z,0
2018-09-27T00:42:54.014Z,0
2018-09-27T00:44:03.714Z,0
2018-09-27T00:45:13.648Z,0
2018-09-27T00:46:23.346Z,0
2018-09-27T00:47:33.332Z,0
2018-09-27T00:48:43.279Z,0
2018-09-27T00:49:53.219Z,0
2018-09-27T00:51:03.149Z,0
2018-09-27T00:52:12.844Z,0
2018-09-27T00:53:22.786Z,0
2018-09-27T00:54:32.726Z,0
2018-09-27T00:55:42.663Z,0
2018-09-27T00:56:52.350Z,0
2018-09-27T00:58:02.285Z,0
2018-09-27T00:59:11.963Z,0
2018-09-27T01:00:21.641Z,0
2018-09-27T01:01:31.578Z,0
2018-09-27T01:02:41.267Z,0
2018-09-27T01:03:51.209Z,0
2018-09-27T01:05:01.146Z,0
2018-09-27T01:06:10.836Z,0
2018-09-27T01:07:20.529Z,0
2018-09-27T01:08:30.473Z,0
2018-09-27T01:09:40.166Z,0
2018-09-27T01:10:50.111Z,0
2018-09-27T01:12:00.058Z,0
2018-09-27T01:13:10.013Z,0
2018-09-27T01:14:19.992Z,0
2018-09-27T01:15:29.691Z,0
2018-09-27T01:16:39.625Z,0
2018-09-27T01:17:49.312Z,0
2018-09-27T01:18:59.240Z,0
2018-09-27T01:20:09.198Z,0
2018-09-27T01:21:18.373Z,0
2018-09-27T01:22:28.053Z,0
2018-09-27T01:23:37.997Z,0
2018-09-27T01:24:47.925Z,0
2018-09-27T01:25:57.866Z,0
2018-09-27T01:27:07.806Z,0
2018-09-27T01:28:17.789Z,0
2018-09-27T01:29:27.496Z,0
2018-09-27T01:30:37.451Z,0
2018-09-27T01:31:47.410Z,0
2018-09-27T01:32:57.367Z,0
2018-09-27T01:34:07.314Z,0
2018-09-27T01:35:16.997Z,0
2018-09-27T01:36:26.951Z,0
2018-09-27T01:37:36.645Z,0
2018-09-27T01:38:46.095Z,0
2018-09-27T01:39:55.774Z,0
2018-09-27T01:41:05.468Z,0
2018-09-27T01:42:15.405Z,0
2018-09-27T01:43:25.346Z,0
2018-09-27T01:44:35.277Z,0
2018-09-27T01:45:45.219Z,0
2018-09-27T01:46:54.889Z,0
2018-09-27T01:48:04.834Z,0
2018-09-27T01:49:14.506Z,0
2018-09-27T01:50:24.461Z,0
2018-09-27T01:51:34.469Z,0
2018-09-27T01:52:44.420Z,0
2018-09-27T01:53:54.103Z,0
2018-09-27T01:55:03.768Z,0
2018-09-27T01:56:13.712Z,0
2018-09-27T01:57:23.642Z,0
2018-09-27T01:58:33.594Z,0
2018-09-27T01:59:43.529Z,0
2018-09-27T02:00:53.223Z,0
2018-09-27T02:02:03.161Z,0
2018-09-27T02:03:13.099Z,0
2018-09-27T02:04:23.051Z,0
2018-09-27T02:05:32.736Z,0
2018-09-27T02:06:42.698Z,0
2018-09-27T02:07:52.635Z,0
2018-09-27T02:09:02.599Z,0
2018-09-27T02:10:12.544Z,0
2018-09-27T02:11:22.492Z,0
2018-09-27T02:12:31.926Z,0
2018-09-27T02:13:41.882Z,0
2018-09-27T02:14:51.592Z,0
2018-09-27T02:16:01.281Z,0
2018-09-27T02:17:11.227Z,0
2018-09-27T02:18:20.909Z,0
2018-09-27T02:19:31.083Z,0
2018-09-27T02:20:40.773Z,0
2018-09-27T02:21:50.214Z,0
2018-09-27T02:23:00.148Z,0
2018-09-27T02:24:10.099Z,0
2018-09-27T02:25:20.031Z,0
2018-09-27T02:26:29.969Z,0
2018-09-27T02:27:39.657Z,0
2018-09-27T02:28:49.602Z,0
2018-09-27T02:29:59.548Z,0
2018-09-27T02:31:09.498Z,0
2018-09-27T02:32:19.445Z,0
2018-09-27T02:33:29.386Z,0
2018-09-27T02:34:39.330Z,0
2018-09-27T02:35:49.324Z,0
2018-09-27T02:36:59.009Z,0
2018-09-27T02:38:08.980Z,0
2018-09-27T02:39:18.954Z,0
2018-09-27T02:40:28.900Z,0
2018-09-27T02:41:38.855Z,0
2018-09-27T02:42:48.795Z,0
2018-09-27T02:43:58.758Z,0
2018-09-27T02:45:08.456Z,0
2018-09-27T02:46:18.390Z,0
2018-09-27T02:47:28.357Z,0
2018-09-27T02:48:38.325Z,0
2018-09-27T02:49:48.002Z,0
2018-09-27T02:50:57.959Z,0
2018-09-27T02:52:07.901Z,0
2018-09-27T02:53:17.593Z,0
2018-09-27T02:54:27.528Z,0
2018-09-27T02:55:37.510Z,0
2018-09-27T02:56:47.474Z,0
2018-09-27T02:57:56.921Z,0
2018-09-27T02:59:06.355Z,0
2018-09-27T03:00:15.784Z,0
2018-09-27T03:01:25.784Z,0
2018-09-27T03:02:35.218Z,0
2018-09-27T03:03:45.358Z,0
2018-09-27T03:04:55.316Z,0
2018-09-27T03:06:05.001Z,0
2018-09-27T03:07:14.703Z,0
2018-09-27T03:08:24.642Z,0
2018-09-27T03:09:34.351Z,0
2018-09-27T03:10:43.768Z,0
2018-09-27T03:11:53.727Z,0
2018-09-27T03:13:03.693Z,0
2018-09-27T03:14:13.634Z,0
2018-09-27T03:15:23.585Z,0
2018-09-27T03:16:33.536Z,0
2018-09-27T03:17:43.245Z,0
2018-09-27T03:18:53.416Z,0
2018-09-27T03:20:03.355Z,0
2018-09-27T03:21:13.654Z,0
2018-09-27T03:22:23.348Z,0
2018-09-27T03:23:33.321Z,0
2018-09-27T03:24:43.267Z,0
2018-09-27T03:25:52.949Z,0
2018-09-27T03:27:02.942Z,0
2018-09-27T03:28:12.893Z,0
2018-09-27T03:29:22.863Z,0
2018-09-27T03:30:32.815Z,0
2018-09-27T03:31:42.510Z,0
2018-09-27T03:32:52.447Z,0
2018-09-27T03:34:02.137Z,0
2018-09-27T03:35:11.827Z,0
2018-09-27T03:36:21.781Z,0
2018-09-27T03:37:31.477Z,0
2018-09-27T03:38:41.417Z,0
2018-09-27T03:39:51.835Z,0
2018-09-27T03:41:01.864Z,0
2018-09-27T03:42:11.818Z,0
2018-09-27T03:43:21.513Z,0
2018-09-27T03:44:31.446Z,0
2018-09-27T03:45:41.148Z,0
2018-09-27T03:46:51.092Z,0
2018-09-27T03:48:01.055Z,0
2018-09-27T03:49:10.998Z,0
2018-09-27T03:50:20.937Z,0
2018-09-27T03:51:30.893Z,0
2018-09-27T03:52:40.846Z,0
2018-09-27T03:53:50.553Z,0
2018-09-27T03:55:00.495Z,0
2018-09-27T03:56:10.464Z,0
2018-09-27T03:57:20.148Z,0
2018-09-27T03:58:29.843Z,0
2018-09-27T03:59:39.793Z,0
2018-09-27T04:00:49.751Z,0
2018-09-27T04:01:59.450Z,0
2018-09-27T04:03:09.184Z,0
2018-09-27T04:04:19.140Z,0
2018-09-27T04:05:29.086Z,0
2018-09-27T04:06:39.035Z,0
2018-09-27T04:07:48.988Z,0
2018-09-27T04:08:58.489Z,0
2018-09-27T04:10:08.418Z,0
2018-09-27T04:11:18.116Z,0
2018-09-27T04:12:28.095Z,0
2018-09-27T04:13:38.037Z,0
2018-09-27T04:14:47.735Z,0
2018-09-27T04:15:58.152Z,0
2018-09-27T04:17:08.115Z,0
2018-09-27T04:18:18.075Z,0
2018-09-27T04:19:28.033Z,0
2018-09-27T04:20:37.987Z,0
2018-09-27T04:21:48.226Z,0
2018-09-27T04:22:57.989Z,0
2018-09-27T04:24:07.796Z,0
2018-09-27T04:25:17.810Z,0
2018-09-27T04:26:27.243Z,0
2018-09-27T04:27:37.187Z,0
2018-09-27T04:28:46.876Z,0
2018-09-27T04:29:56.055Z,0
2018-09-27T04:31:05.998Z,0
2018-09-27T04:32:15.954Z,0
2018-09-27T04:33:25.913Z,0
2018-09-27T04:34:35.352Z,0
2018-09-27T04:35:44.776Z,0
2018-09-27T04:36:54.726Z,0
2018-09-27T04:38:04.655Z,0
2018-09-27T04:39:14.603Z,0
2018-09-27T04:40:24.300Z,0
2018-09-27T04:41:33.991Z,0
2018-09-27T04:42:43.982Z,0
2018-09-27T04:43:53.926Z,0
2018-09-27T04:45:03.873Z,0
2018-09-27T04:46:13.307Z,0
2018-09-27T04:47:23.251Z,0
2018-09-27T04:48:32.953Z,0
2018-09-27T04:49:42.645Z,0
2018-09-27T04:50:52.097Z,0
2018-09-27T04:52:01.973Z,0
2018-09-27T04:53:11.927Z,0
2018-09-27T04:54:21.902Z,0
2018-09-27T04:55:31.849Z,0
2018-09-27T04:56:41.521Z,0
2018-09-27T04:57:51.234Z,0
2018-09-27T04:59:01.203Z,0
2018-09-27T05:00:11.628Z,0
2018-09-27T05:01:21.602Z,0
2018-09-27T05:02:31.549Z,5
2018-09-27T05:03:41.439Z,5
2018-09-27T05:04:51.418Z,5
2018-09-27T05:06:01.093Z,5
2018-09-27T05:07:11.049Z,5
2018-09-27T05:08:20.976Z,5
2018-09-27T05:09:31.043Z,5
2018-09-27T05:10:40.824Z,10
2018-09-27T05:11:50.800Z,10
2018-09-27T05:13:00.756Z,10
2018-09-27T05:14:10.719Z,10
2018-09-27T05:15:20.444Z,10
2018-09-27T05:16:30.205Z,15
2018-09-27T05:17:39.891Z,15
2018-09-27T05:18:49.837Z,15
2018-09-27T05:19:59.799Z,15
2018-09-27T05:21:09.740Z,15
2018-09-27T05:22:19.688Z,15
2018-09-27T05:23:29.654Z,20
2018-09-27T05:24:39.350Z,20
2018-09-27T05:25:49.335Z,25
2018-09-27T05:26:58.785Z,25
2018-09-27T05:28:08.752Z,25
2018-09-27T05:29:18.728Z,25
2018-09-27T05:30:28.696Z,30
2018-09-27T05:31:38.669Z,35
2018-09-27T05:32:48.365Z,35
2018-09-27T05:33:58.090Z,35
2018-09-27T05:35:07.760Z,35
2018-09-27T05:36:17.714Z,40
2018-09-27T05:37:27.408Z,40
2018-09-27T05:38:37.373Z,40
2018-09-27T05:39:47.351Z,45
2018-09-27T05:40:57.307Z,45
2018-09-27T05:42:07.253Z,45
2018-09-27T05:43:17.208Z,45
2018-09-27T05:44:27.190Z,50
2018-09-27T05:45:37.486Z,55
2018-09-27T05:46:47.515Z,60
2018-09-27T05:47:57.451Z,65
2018-09-27T05:49:07.469Z,65
2018-09-27T05:50:17.177Z,65
2018-09-27T05:51:27.005Z,70
2018-09-27T05:52:36.968Z,75
2018-09-27T05:53:47.146Z,75
2018-09-27T05:54:57.093Z,75
2018-09-27T05:56:07.451Z,80
2018-09-27T05:57:16.934Z,75
2018-09-27T05:58:26.877Z,75
2018-09-27T05:59:36.833Z,75
2018-09-27T06:00:46.538Z,80
2018-09-27T06:01:56.685Z,85
2018-09-27T06:03:06.374Z,90
2018-09-27T06:04:16.336Z,90
2018-09-27T06:05:26.298Z,90
2018-09-27T06:06:36.251Z,95
2018-09-27T06:07:45.953Z,100
2018-09-27T06:08:55.906Z,105
2018-09-27T06:10:05.604Z,115
2018-09-27T06:11:15.637Z,125
2018-09-27T06:12:25.612Z,125
2018-09-27T06:13:35.596Z,130
2018-09-27T06:14:45.550Z,125
2018-09-27T06:15:55.498Z,125
2018-09-27T06:17:05.444Z,125
2018-09-27T06:18:15.151Z,135
2018-09-27T06:19:25.167Z,145
2018-09-27T06:20:34.624Z,150
2018-09-27T06:21:45.025Z,150
2018-09-27T06:22:54.990Z,155
2018-09-27T06:24:04.947Z,160
2018-09-27T06:25:14.910Z,160
2018-09-27T06:26:24.876Z,160
2018-09-27T06:27:34.764Z,165
2018-09-27T06:28:44.750Z,165
2018-09-27T06:29:54.700Z,160
2018-09-27T06:31:04.407Z,160
2018-09-27T06:32:14.096Z,170
2018-09-27T06:33:23.844Z,175
2018-09-27T06:34:33.802Z,180
2018-09-27T06:35:43.518Z,170
2018-09-27T06:36:52.966Z,175
2018-09-27T06:38:02.974Z,180
2018-09-27T06:39:12.689Z,190
2018-09-27T06:40:22.676Z,195
2018-09-27T06:41:32.867Z,200
2018-09-27T06:42:42.628Z,195
2018-09-27T06:43:52.632Z,190
2018-09-27T06:45:02.634Z,195
2018-09-27T06:46:12.595Z,200
2018-09-27T06:47:22.556Z,200
2018-09-27T06:48:33.317Z,200
2018-09-27T06:49:43.032Z,200
2018-09-27T06:50:53.175Z,205
2018-09-27T06:52:03.170Z,210
2018-09-27T06:53:13.190Z,215
2018-09-27T06:54:22.917Z,215
2018-09-27T06:55:33.765Z,210
2018-09-27T06:56:44.517Z,195
2018-09-27T06:57:54.554Z,185
2018-09-27T06:59:04.060Z,190
2018-09-27T07:00:13.783Z,190
2018-09-27T07:01:23.231Z,180
2018-09-27T07:02:33.320Z,180
2018-09-27T07:03:43.301Z,185
2018-09-27T07:04:52.561Z,205
2018-09-27T07:06:02.791Z,225
2018-09-27T07:07:12.639Z,230
2018-09-27T07:08:22.087Z,215
2018-09-27T07:09:32.080Z,215
2018-09-27T07:10:41.839Z,235
2018-09-27T07:11:52.057Z,255
2018-09-27T07:13:02.404Z,255
2018-09-27T07:14:12.399Z,255
2018-09-27T07:15:22.174Z,265
2018-09-27T07:16:31.875Z,270
2018-09-27T07:17:41.831Z,280
2018-09-27T07:18:52.268Z,280
2018-09-27T07:20:01.744Z,295
2018-09-27T07:21:11.470Z,310
2018-09-27T07:22:21.163Z,315
2018-09-27T07:23:31.110Z,310
2018-09-27T07:24:41.062Z,325
2018-09-27T07:25:51.013Z,335
2018-09-27T07:27:00.952Z,325
2018-09-27T07:28:10.682Z,320
2018-09-27T07:29:20.651Z,315
2018-09-27T07:30:30.365Z,310
2018-09-27T07:31:40.064Z,305
2018-09-27T07:32:50.262Z,305
2018-09-27T07:34:00.231Z,300
2018-09-27T07:35:09.935Z,305
2018-09-27T07:36:19.897Z,305
2018-09-27T07:37:29.921Z,300
2018-09-27T07:38:39.855Z,310
2018-09-27T07:39:49.540Z,315
2018-09-27T07:40:59.491Z,325
2018-09-27T07:42:09.535Z,335
2018-09-27T07:43:19.535Z,350
2018-09-27T07:44:29.784Z,360
2018-09-27T07:45:39.204Z,360
2018-09-27T07:46:49.172Z,365
2018-09-27T07:47:59.138Z,350
2018-09-27T07:49:09.147Z,360
2018-09-27T07:50:19.110Z,350
2018-09-27T07:51:29.082Z,355
2018-09-27T07:52:39.042Z,370
2018-09-27T07:53:49.024Z,360
2018-09-27T07:54:59.571Z,375
2018-09-27T07:56:09.643Z,390
2018-09-27T07:57:19.642Z,405
2018-09-27T07:58:29.603Z,415
2018-09-27T07:59:39.624Z,435
2018-09-27T08:00:49.756Z,460
2018-09-27T08:01:59.204Z,460
2018-09-27T08:03:09.467Z,450
2018-09-27T08:04:19.621Z,440
2018-09-27T08:05:29.673Z,475
2018-09-27T08:06:39.640Z,500
2018-09-27T08:07:49.593Z,510
2018-09-27T08:08:59.349Z,525
2018-09-27T08:10:09.286Z,545
2018-09-27T08:11:19.634Z,555
2018-09-27T08:12:29.422Z,590
2018-09-27T08:13:39.382Z,600
2018-09-27T08:14:49.446Z,620
2018-09-27T08:15:59.146Z,585
2018-09-27T08:17:09.393Z,620
2018-09-27T08:18:19.178Z,580
2018-09-27T08:19:29.206Z,550
2018-09-27T08:20:39.862Z,470
2018-09-27T08:21:49.927Z,480
2018-09-27T08:22:59.935Z,820
2018-09-27T08:24:10.273Z,800
2018-09-27T08:25:19.996Z,885
2018-09-27T08:26:29.603Z,1035
2018-09-27T08:27:39.655Z,695
2018-09-27T08:28:49.359Z,965
2018-09-27T08:29:59.336Z,825
2018-09-27T08:31:09.649Z,1085
2018-09-27T08:32:19.669Z,1120
2018-09-27T08:33:29.654Z,1115
2018-09-27T08:34:39.676Z,1115
2018-09-27T08:35:49.662Z,1130
2018-09-27T08:36:59.611Z,820
2018-09-27T08:38:09.656Z,1075
2018-09-27T08:39:19.404Z,1145
2018-09-27T08:40:29.137Z,1100
2018-09-27T08:41:39.100Z,945
2018-09-27T08:42:48.779Z,1110
2018-09-27T08:43:58.737Z,1025
2018-09-27T08:45:10.257Z,1115
2018-09-27T08:46:20.318Z,1165
2018-09-27T08:47:30.283Z,1165
2018-09-27T08:48:39.462Z,1145
2018-09-27T08:49:49.172Z,1130
2018-09-27T08:50:58.907Z,1175
2018-09-27T08:52:08.632Z,1210
2018-09-27T08:53:18.360Z,1185
2018-09-27T08:54:27.540Z,1215
2018-09-27T08:55:37.500Z,1245
2018-09-27T08:56:47.496Z,1225
2018-09-27T08:57:56.963Z,1245
2018-09-27T08:59:06.658Z,1250
2018-09-27T09:00:16.127Z,1225
2018-09-27T09:01:26.209Z,1240
2018-09-27T09:02:36.186Z,1285
2018-09-27T09:03:47.030Z,1305
2018-09-27T09:04:56.783Z,1330
2018-09-27T09:06:06.510Z,1410
2018-09-27T09:07:16.505Z,1400
2018-09-27T09:08:26.231Z,1435
2018-09-27T09:09:36.498Z,1380
2018-09-27T09:10:46.593Z,1455
2018-09-27T09:11:56.340Z,1415
2018-09-27T09:13:06.315Z,1480
2018-09-27T09:14:16.303Z,1515
2018-09-27T09:15:26.292Z,1495
2018-09-27T09:16:36.015Z,1495
2018-09-27T09:17:45.998Z,1545
2018-09-27T09:18:55.728Z,1535
2018-09-27T09:20:05.718Z,1605
2018-09-27T09:21:15.694Z,1570
2018-09-27T09:22:25.148Z,1585
2018-09-27T09:23:34.855Z,1670
2018-09-27T09:24:44.980Z,1560
2018-09-27T09:25:55.027Z,1495
2018-09-27T09:27:05.001Z,1685
2018-09-27T09:28:14.987Z,1680
2018-09-27T09:29:25.333Z,1650
2018-09-27T09:30:35.363Z,1690
2018-09-27T09:31:45.322Z,1690
2018-09-27T09:32:55.294Z,1645
2018-09-27T09:34:05.267Z,1615
2018-09-27T09:35:15.241Z,1740
2018-09-27T09:36:25.215Z,1825
2018-09-27T09:37:35.190Z,1790
2018-09-27T09:38:45.158Z,1825
2018-09-27T09:39:55.140Z,1390
2018-09-27T09:41:05.122Z,1695
2018-09-27T09:42:14.847Z,1860
2018-09-27T09:43:24.594Z,1875
2018-09-27T09:44:34.564Z,1730
2018-09-27T09:45:44.291Z,1235
2018-09-27T09:46:53.984Z,855
2018-09-27T09:48:03.973Z,885
2018-09-27T09:49:13.929Z,2105
2018-09-27T09:50:23.939Z,1205
2018-09-27T09:51:33.903Z,800
2018-09-27T09:52:43.889Z,1910
2018-09-27T09:53:53.590Z,1750
2018-09-27T09:55:03.292Z,2200
2018-09-27T09:56:12.995Z,835
2018-09-27T09:57:22.964Z,1700
2018-09-27T09:58:32.919Z,2165
2018-09-27T09:59:42.632Z,2090
2018-09-27T10:00:52.632Z,2035
2018-09-27T10:02:02.601Z,2030
2018-09-27T10:03:12.052Z,2120
2018-09-27T10:04:22.035Z,2200
2018-09-27T10:05:32.008Z,2120
2018-09-27T10:06:41.719Z,2080
2018-09-27T10:07:51.688Z,2030
2018-09-27T10:09:01.389Z,1985
2018-09-27T10:10:11.165Z,2135
2018-09-27T10:11:20.935Z,2115
2018-09-27T10:12:30.974Z,2150
2018-09-27T10:13:40.709Z,2200
2018-09-27T10:14:50.421Z,2280
2018-09-27T10:16:00.628Z,2215
2018-09-27T10:17:10.602Z,2030
2018-09-27T10:18:20.581Z,2205
2018-09-27T10:19:30.280Z,2280
2018-09-27T10:20:39.981Z,2205
2018-09-27T10:21:50.598Z,2185
2018-09-27T10:23:00.383Z,2225
2018-09-27T10:24:10.371Z,2295
2018-09-27T10:25:20.358Z,2260
2018-09-27T10:26:30.330Z,2205
2018-09-27T10:27:40.512Z,2235
2018-09-27T10:28:50.220Z,2380
2018-09-27T10:30:00.233Z,2260
2018-09-27T10:31:10.181Z,2415
2018-09-27T10:32:19.879Z,2455
2018-09-27T10:33:29.601Z,2385
2018-09-27T10:34:39.636Z,2380
2018-09-27T10:35:49.028Z,2305
2018-09-27T10:36:58.466Z,2390
2018-09-27T10:38:08.432Z,2530
2018-09-27T10:39:18.147Z,2500
2018-09-27T10:40:28.127Z,2455
2018-09-27T10:41:38.072Z,2465
2018-09-27T10:42:47.525Z,2545
2018-09-27T10:43:57.246Z,2300
2018-09-27T10:45:06.976Z,2490
2018-09-27T10:46:16.944Z,2265
2018-09-27T10:47:26.659Z,2120
2018-09-27T10:48:36.631Z,2495
2018-09-27T10:49:46.337Z,2445
2018-09-27T10:50:56.317Z,2360
2018-09-27T10:52:06.282Z,2390
2018-09-27T10:53:15.976Z,2460
2018-09-27T10:54:25.965Z,2525
2018-09-27T10:55:35.668Z,2550
2018-09-27T10:56:45.619Z,2595
2018-09-27T10:57:55.612Z,2485
2018-09-27T10:59:05.585Z,2375
2018-09-27T11:00:15.566Z,2440
2018-09-27T11:01:25.283Z,2625
2018-09-27T11:02:35.248Z,2675
2018-09-27T11:03:45.206Z,2680
2018-09-27T11:04:55.180Z,2655
2018-09-27T11:06:05.159Z,2505
2018-09-27T11:07:15.135Z,2560
2018-09-27T11:08:25.115Z,2595
2018-09-27T11:09:34.852Z,2660
2018-09-27T11:10:44.567Z,2760
2018-09-27T11:11:54.125Z,2745
2018-09-27T11:13:03.838Z,2630
2018-09-27T11:14:13.808Z,2400
2018-09-27T11:15:23.287Z,2705
2018-09-27T11:16:33.870Z,1940
2018-09-27T11:17:43.843Z,2165
2018-09-27T11:18:53.834Z,2750
2018-09-27T11:20:03.562Z,2925
2018-09-27T11:21:13.526Z,2955
2018-09-27T11:22:23.537Z,3010
2018-09-27T11:23:33.319Z,2925
2018-09-27T11:24:43.491Z,2930
2018-09-27T11:25:53.179Z,795
2018-09-27T11:27:02.904Z,750
2018-09-27T11:28:12.866Z,2545
2018-09-27T11:29:22.849Z,2930
2018-09-27T11:30:32.839Z,2965
2018-09-27T11:31:42.817Z,730
2018-09-27T11:32:52.806Z,765
2018-09-27T11:34:02.777Z,795
2018-09-27T11:35:12.755Z,2885
2018-09-27T11:36:22.804Z,2915
2018-09-27T11:37:32.813Z,2850
2018-09-27T11:38:42.402Z,2880
2018-09-27T11:39:52.426Z,2990
2018-09-27T11:41:02.003Z,2860
2018-09-27T11:42:11.732Z,1280
2018-09-27T11:43:21.701Z,1195
2018-09-27T11:44:31.690Z,1075
2018-09-27T11:45:41.679Z,3090
2018-09-27T11:46:51.659Z,3060
2018-09-27T11:48:01.399Z,3120
2018-09-27T11:49:12.412Z,3010
2018-09-27T11:50:22.361Z,885
2018-09-27T11:51:32.440Z,1385
2018-09-27T11:52:42.430Z,750
2018-09-27T11:53:52.403Z,2585
2018-09-27T11:55:02.950Z,2745
2018-09-27T11:56:13.092Z,2895
2018-09-27T11:57:23.070Z,3025
2018-09-27T11:58:33.032Z,3010
2018-09-27T11:59:43.021Z,3120
2018-09-27T12:00:53.118Z,3200
2018-09-27T12:02:03.096Z,3060
2018-09-27T12:03:12.819Z,3005
2018-09-27T12:04:22.779Z,2835
2018-09-27T12:05:32.969Z,2890
2018-09-27T12:06:43.133Z,2890
2018-09-27T12:07:52.972Z,990
2018-09-27T12:09:02.924Z,2810
2018-09-27T12:10:12.398Z,3040
2018-09-27T12:11:22.371Z,3015
2018-09-27T12:12:32.343Z,2050
2018-09-27T12:13:42.117Z,2980
2018-09-27T12:14:52.406Z,3110
2018-09-27T12:16:01.865Z,2005
2018-09-27T12:17:11.331Z,2805
2018-09-27T12:18:21.295Z,880
2018-09-27T12:19:31.188Z,3030
2018-09-27T12:20:40.640Z,3045
2018-09-27T12:21:50.619Z,990
2018-09-27T12:23:00.798Z,3130
2018-09-27T12:24:10.788Z,3170
2018-09-27T12:25:20.786Z,3220
2018-09-27T12:26:30.945Z,3220
2018-09-27T12:27:40.925Z,2095
2018-09-27T12:28:51.310Z,3075
2018-09-27T12:30:01.040Z,3105
2018-09-27T12:31:11.559Z,3270
2018-09-27T12:32:21.542Z,3065
2018-09-27T12:33:31.519Z,2875
2018-09-27T12:34:41.226Z,1420
2018-09-27T12:35:50.959Z,655
2018-09-27T12:37:00.665Z,710
2018-09-27T12:38:10.425Z,3095
2018-09-27T12:39:20.398Z,3110
2018-09-27T12:40:30.540Z,3170
2018-09-27T12:41:41.060Z,3130
2018-09-27T12:42:51.573Z,3000
2018-09-27T12:44:01.339Z,2890
2018-09-27T12:45:12.044Z,2680
2018-09-27T12:46:22.483Z,2650
2018-09-27T12:47:32.259Z,2790
2018-09-27T12:48:43.276Z,2920
2018-09-27T12:49:53.315Z,2880
2018-09-27T12:51:03.837Z,2970
2018-09-27T12:52:14.999Z,2890
2018-09-27T12:53:25.488Z,2950
2018-09-27T12:54:34.926Z,3005
2018-09-27T12:55:44.650Z,3140
2018-09-27T12:56:54.630Z,3060
2018-09-27T12:58:04.583Z,3000
2018-09-27T12:59:14.562Z,1165
2018-09-27T13:00:24.534Z,3030
2018-09-27T13:01:34.512Z,3030
2018-09-27T13:02:44.934Z,3065
2018-09-27T13:03:54.950Z,2970
2018-09-27T13:05:04.964Z,3000
2018-09-27T13:06:14.970Z,2170
2018-09-27T13:07:24.962Z,3015
2018-09-27T13:08:34.851Z,3000
2018-09-27T13:09:46.104Z,2875
2018-09-27T13:10:55.849Z,2895
2018-09-27T13:12:06.581Z,2945
2018-09-27T13:13:16.975Z,2920
2018-09-27T13:14:27.056Z,2920
2018-09-27T13:15:37.036Z,2965
2018-09-27T13:16:46.233Z,2970
2018-09-27T13:17:56.344Z,2980
2018-09-27T13:19:07.338Z,2930
2018-09-27T13:20:16.982Z,2855
2018-09-27T13:21:27.074Z,2920
2018-09-27T13:22:37.088Z,2825
2018-09-27T13:23:47.065Z,2880
2018-09-27T13:24:57.237Z,2955
2018-09-27T13:26:07.052Z,2955
2018-09-27T13:27:17.045Z,2990
2018-09-27T13:28:26.821Z,2935
2018-09-27T13:29:36.538Z,2860
2018-09-27T13:30:46.257Z,2915
2018-09-27T13:31:56.131Z,2975
2018-09-27T13:33:06.496Z,2910
2018-09-27T13:34:16.655Z,2805
2018-09-27T13:35:26.629Z,2830
2018-09-27T13:36:36.600Z,2765
2018-09-27T13:37:46.305Z,2685
2018-09-27T13:38:56.263Z,2780
2018-09-27T13:40:06.139Z,2760
2018-09-27T13:41:16.155Z,2835
2018-09-27T13:42:25.877Z,2820
2018-09-27T13:43:35.578Z,2755
2018-09-27T13:44:45.280Z,2830
2018-09-27T13:45:55.268Z,2820
2018-09-27T13:47:05.233Z,2595
2018-09-27T13:48:15.206Z,2530
2018-09-27T13:49:24.909Z,2755
2018-09-27T13:50:34.883Z,2955
2018-09-27T13:51:44.878Z,2805
2018-09-27T13:52:54.842Z,2745
2018-09-27T13:54:04.543Z,2730
2018-09-27T13:55:14.708Z,2690
2018-09-27T13:56:24.432Z,2680
2018-09-27T13:57:34.624Z,2665
2018-09-27T13:58:44.587Z,2705
2018-09-27T13:59:54.566Z,2660
2018-09-27T14:01:04.858Z,2675
2018-09-27T14:02:14.638Z,2725
2018-09-27T14:03:24.604Z,2735
2018-09-27T14:04:34.307Z,2705
2018-09-27T14:05:44.645Z,2995
2018-09-27T14:06:54.584Z,3310
2018-09-27T14:08:04.288Z,3035
2018-09-27T14:09:14.254Z,2565
2018-09-27T14:48:58.662Z,2015
2018-09-27T14:50:08.842Z,2000
2018-09-27T14:51:18.650Z,2005
2018-09-27T14:52:28.425Z,2005
2018-09-27T14:53:38.076Z,2090
2018-09-27T14:54:48.245Z,2055
2018-09-27T14:55:58.298Z,1930
2018-09-27T14:57:08.276Z,1935
2018-09-27T14:58:18.254Z,1860
2018-09-27T14:59:28.348Z,1785
2018-09-27T15:00:38.591Z,1790
2018-09-27T15:01:48.330Z,1870
2018-09-27T15:02:58.320Z,1925
2018-09-27T15:04:08.299Z,1830
2018-09-27T15:05:18.038Z,1785
2018-09-27T15:06:27.499Z,1815
2018-09-27T15:07:37.228Z,1840
2018-09-27T15:08:46.939Z,1790
2018-09-27T15:09:57.483Z,1670
2018-09-27T15:11:07.469Z,1605
2018-09-27T15:12:17.532Z,1590
2018-09-27T15:13:27.503Z,1565
2018-09-27T15:14:37.781Z,1590
2018-09-27T15:15:47.541Z,1600
2018-09-27T15:16:57.495Z,1590
2018-09-27T15:18:07.830Z,1585
2018-09-27T15:19:17.848Z,1545
2018-09-27T15:20:27.301Z,1565
2018-09-27T15:21:37.274Z,1565
2018-09-27T15:22:47.726Z,1480
2018-09-27T15:23:57.687Z,1450
2018-09-27T15:25:07.701Z,1390
2018-09-27T15:26:17.402Z,1355
2018-09-27T15:27:27.351Z,1330
2018-09-27T15:28:37.070Z,1360
2018-09-27T15:29:47.037Z,1345
2018-09-27T15:30:56.600Z,1350
2018-09-27T15:32:06.076Z,1370
2018-09-27T15:33:16.051Z,1300
2018-09-27T15:34:26.043Z,1270
2018-09-27T15:35:36.038Z,1285
2018-09-27T15:36:46.418Z,1260
2018-09-27T15:37:56.376Z,1205
2018-09-27T15:39:06.351Z,1205
2018-09-27T15:40:16.458Z,1195
2018-09-27T15:41:26.425Z,1180
2018-09-27T15:42:36.382Z,1140
2018-09-27T15:43:46.101Z,1085
2018-09-27T15:44:55.818Z,1150
2018-09-27T15:46:05.268Z,1145
2018-09-27T15:47:15.248Z,1110
2018-09-27T15:48:24.954Z,1050
2018-09-27T15:49:34.953Z,965
2018-09-27T15:50:44.952Z,990
2018-09-27T15:51:54.400Z,1000
2018-09-27T15:53:04.121Z,985
2018-09-27T15:54:14.099Z,970
2018-09-27T15:55:24.046Z,940
2018-09-27T15:56:34.009Z,910
2018-09-27T15:57:43.710Z,880
2018-09-27T15:58:53.999Z,835
2018-09-27T16:00:03.966Z,800
2018-09-27T16:01:13.421Z,775
2018-09-27T16:02:22.856Z,775
2018-09-27T16:03:32.816Z,735
2018-09-27T16:04:42.804Z,705
2018-09-27T16:05:52.815Z,675
2018-09-27T16:07:02.781Z,660
2018-09-27T16:08:12.738Z,635
2018-09-27T16:09:22.720Z,600
2018-09-27T16:10:32.426Z,570
2018-09-27T16:11:42.702Z,540
2018-09-27T16:12:52.667Z,525
2018-09-27T16:14:02.639Z,520
2018-09-27T16:15:12.635Z,490
2018-09-27T16:16:22.607Z,450
2018-09-27T16:17:32.500Z,430
2018-09-27T16:18:42.219Z,410
2018-09-27T16:19:52.177Z,365
2018-09-27T16:21:01.873Z,330
2018-09-27T16:22:12.213Z,340
2018-09-27T16:23:22.168Z,330
2018-09-27T16:24:32.160Z,295
2018-09-27T16:25:41.872Z,275
2018-09-27T16:26:51.839Z,255
2018-09-27T16:28:01.526Z,235
2018-09-27T16:29:11.228Z,210
2018-09-27T16:30:21.193Z,195
2018-09-27T16:31:31.151Z,180
2018-09-27T16:32:41.116Z,170
2018-09-27T16:33:51.075Z,155
2018-09-27T16:35:01.060Z,150
2018-09-27T16:36:11.029Z,125
2018-09-27T16:37:20.485Z,110
2018-09-27T16:38:30.445Z,105
2018-09-27T16:39:40.395Z,90
2018-09-27T16:40:50.099Z,65
2018-09-27T16:42:00.067Z,55
2018-09-27T16:43:10.032Z,50
2018-09-27T16:44:19.979Z,45
2018-09-27T16:45:29.675Z,40
2018-09-27T16:46:39.637Z,40
2018-09-27T16:47:50.176Z,35
2018-09-27T16:49:00.310Z,30
2018-09-27T16:50:10.342Z,30
2018-09-27T16:51:20.060Z,25
2018-09-27T16:52:29.802Z,20